Time;durP1;ratioP1;P1;durP2;ratioP2;P2;SDS_P1;SDS_P2;PMS_P1;PMS_P2;Temp;Humidity;BMP_temperature;BMP_pressure;BME280_temperature;BME280_humidity;BME280_pressure;Samples;Min_cycle;Max_cycle;Signal;HPM_P1;HPM_P2
2022/05/16 00:01:44;;;;;;;;;;;;;;;22.72;44.77;101184.50;5072315;28;20333;-78
2022/05/16 00:04:09;;;;;;;;;;;;;;;22.71;45.15;101180.94;5074166;28;19920;-78
2022/05/16 00:06:34;;;;;;;;;;;;;;;22.71;44.77;101188.41;5072699;28;19927;-78
2022/05/16 00:08:59;;;;;;;;;;;;;;;22.70;44.74;101193.06;5076184;28;19917;-77
2022/05/16 00:11:25;;;;;;;;;;;;;;;22.69;45.14;101184.00;5077555;28;19927;-78
2022/05/16 00:13:50;;;;;;;;;;;;;;;22.70;45.07;101179.31;5077726;28;20287;-81
2022/05/16 00:16:15;;;;;;;;;;;;;;;22.68;44.79;101176.88;5075941;28;20028;-78
2022/05/16 00:18:40;;;;;;;;;;;;;;;22.68;44.91;101176.88;5077107;28;19927;-78
2022/05/16 00:21:06;;;;;;;;;;;;;;;22.68;45.10;101171.38;5076705;28;19926;-79
2022/05/16 00:23:31;;;;;;;;;;;;;;;22.68;45.11;101181.59;5076919;28;20379;-78
2022/05/16 00:25:56;;;;;;;;;;;;;;;22.69;44.84;101180.44;5076843;28;20398;-78
2022/05/16 00:28:22;;;;;;;;;;;;;;;22.68;44.89;101167.81;5077027;28;20256;-77
2022/05/16 00:30:48;;;;;;;;;;;;;;;22.67;44.80;101169.72;5076347;28;20018;-79
2022/05/16 00:33:13;;;;;;;;;;;;;;;22.66;44.60;101181.88;5075815;28;19954;-77
2022/05/16 00:35:38;;;;;;;;;;;;;;;22.67;45.07;101182.69;5075617;28;19931;-78
2022/05/16 00:38:04;;;;;;;;;;;;;;;22.66;44.76;101179.13;5076584;28;19970;-77
2022/05/16 00:40:29;;;;;;;;;;;;;;;22.66;45.12;101170.88;5077184;28;19917;-77
2022/05/16 00:43:01;;;;;;;;;;;;;;;22.67;44.96;101179.94;5075286;28;19965;-78
2022/05/16 00:45:27;;;;;;;;;;;;;;;22.67;45.09;101182.69;5077302;28;19917;-77
2022/05/16 00:47:52;;;;;;;;;;;;;;;22.65;44.83;101158.25;5076496;28;20251;-78
2022/05/16 00:50:17;;;;;;;;;;;;;;;22.66;44.98;101150.78;5075213;28;19923;-78
2022/05/16 00:52:45;;;;;;;;;;;;;;;22.64;44.80;101142.84;5076403;28;19948;-78
2022/05/16 00:55:22;;;;;;;;;;;;;;;22.64;45.09;101145.59;5076342;28;19917;-78
2022/05/16 00:57:50;;;;;;;;;;;;;;;22.65;44.77;101149.97;5076202;28;19916;-79
2022/05/16 01:00:15;;;;;;;;;;;;;;;22.64;44.72;101136.50;5074968;28;20413;-77
2022/05/16 01:05:27;;;;;;;;;;;;;;;22.63;45.09;101137.66;5076888;28;19950;-78
2022/05/16 01:07:56;;;;;;;;;;;;;;;22.63;44.77;101137.66;5058948;28;20007;-78
2022/05/16 01:10:21;;;;;;;;;;;;;;;22.63;44.84;101143.16;5076125;28;19912;-78
2022/05/16 01:12:48;;;;;;;;;;;;;;;22.62;45.09;101145.09;5074899;28;19937;-78
2022/05/16 01:15:15;;;;;;;;;;;;;;;22.62;44.79;101145.09;5074709;28;19952;-78
2022/05/16 01:17:40;;;;;;;;;;;;;;;22.62;44.82;101150.59;5076110;28;19917;-77
2022/05/16 01:20:07;;;;;;;;;;;;;;;22.63;44.85;101156.94;5073779;28;20260;-78
2022/05/16 01:22:37;;;;;;;;;;;;;;;22.62;44.76;101155.28;5075665;28;19965;-78
2022/05/16 01:25:13;;;;;;;;;;;;;;;22.62;44.96;101158.03;5074408;28;19953;-78
2022/05/16 01:27:40;;;;;;;;;;;;;;;22.62;44.84;101149.78;5076397;28;19913;-78
2022/05/16 01:30:05;;;;;;;;;;;;;;;22.62;44.82;101147.03;5074685;28;19950;-77
2022/05/16 01:32:31;;;;;;;;;;;;;;;22.61;45.06;101146.22;5076058;28;20348;-78
2022/05/16 01:34:56;;;;;;;;;;;;;;;22.61;44.79;101145.41;5076223;28;20297;-78
2022/05/16 01:38:18;;;;;;;;;;;;;;;22.61;44.91;101143.47;5074844;28;20256;-78
2022/05/16 01:40:07;;;;;;;;;;;;;;;22.61;44.85;101148.97;5074057;28;20041;-78
2022/05/16 01:42:32;;;;;;;;;;;;;;;22.60;45.04;101141.00;5075950;28;20066;-78
2022/05/16 01:44:57;;;;;;;;;;;;;;;22.60;45.18;101149.28;5074161;28;19962;-81
2022/05/16 01:47:22;;;;;;;;;;;;;;;22.60;44.80;101143.78;5075419;28;19916;-78
2022/05/16 01:49:48;;;;;;;;;;;;;;;22.59;44.78;101142.16;5074112;28;20278;-78
2022/05/16 01:52:13;;;;;;;;;;;;;;;22.59;44.99;101145.72;5074028;28;20249;-78
2022/05/16 01:54:38;;;;;;;;;;;;;;;22.59;44.83;101142.97;5075270;28;20269;-77
2022/05/16 01:57:03;;;;;;;;;;;;;;;22.58;44.80;101138.59;5074954;28;19930;-77
2022/05/16 01:59:28;;;;;;;;;;;;;;;22.58;44.77;101137.75;5075639;28;19952;-77
2022/05/16 02:01:54;;;;;;;;;;;;;;;22.58;44.96;101124.00;5074945;28;19943;-78
2022/05/16 02:04:19;;;;;;;;;;;;;;;22.58;44.81;101126.75;5073768;28;19964;-78
2022/05/16 02:06:44;;;;;;;;;;;;;;;22.57;44.80;101117.69;5075309;28;19917;-77
2022/05/16 02:09:09;;;;;;;;;;;;;;;22.57;44.78;101125.13;5057273;28;19947;-77
2022/05/16 02:11:35;;;;;;;;;;;;;;;22.57;44.85;101119.63;5074936;28;20347;-78
2022/05/16 02:14:00;;;;;;;;;;;;;;;22.57;44.94;101114.94;5073844;28;20026;-82
2022/05/16 02:16:25;;;;;;;;;;;;;;;22.56;45.17;101115.25;5074222;28;19927;-78
2022/05/16 02:18:50;;;;;;;;;;;;;;;22.56;45.01;101116.06;5074759;28;19930;-78
2022/05/16 02:26:46;;;;;;;;;;;;;;;22.56;45.19;101107.00;5074960;28;20007;-78
2022/05/16 02:29:12;;;;;;;;;;;;;;;22.55;45.19;101102.59;5074453;28;19913;-77
2022/05/16 02:31:38;;;;;;;;;;;;;;;22.55;45.09;101097.09;5073356;28;19943;-78
2022/05/16 02:34:03;;;;;;;;;;;;;;;22.54;44.83;101099.03;5074244;28;20366;-78
2022/05/16 02:36:28;;;;;;;;;;;;;;;22.54;44.99;101087.22;5073149;28;20286;-78
2022/05/16 02:38:54;;;;;;;;;;;;;;;22.53;44.92;101080.91;5073086;28;19916;-78
2022/05/16 02:41:19;;;;;;;;;;;;;;;22.53;44.84;101091.09;5074543;28;19912;-77
2022/05/16 02:43:44;;;;;;;;;;;;;;;22.53;44.81;101083.66;5074312;28;19917;-77
2022/05/16 02:46:09;;;;;;;;;;;;;;;22.53;44.83;101080.06;5057561;28;19964;-78
2022/05/16 02:48:35;;;;;;;;;;;;;;;22.52;44.96;101073.75;5074376;28;19935;-78
2022/05/16 02:51:00;;;;;;;;;;;;;;;22.52;45.15;101076.50;5074297;28;20360;-78
2022/05/16 02:53:25;;;;;;;;;;;;;;;22.52;45.28;101079.28;5074150;28;20266;-77
2022/05/16 02:55:50;;;;;;;;;;;;;;;22.51;44.87;101072.16;5074213;28;19961;-78
2022/05/16 02:58:16;;;;;;;;;;;;;;;22.52;45.19;101076.50;5072861;28;19946;-77
2022/05/16 03:00:41;;;;;;;;;;;;;;;22.51;44.89;101076.84;5073016;28;19996;-77
2022/05/16 03:03:06;;;;;;;;;;;;;;;22.51;45.20;101083.16;5073712;28;19947;-77
2022/05/16 03:05:31;;;;;;;;;;;;;;;22.51;44.85;101076.84;5074146;28;19939;-77
2022/05/16 03:07:58;;;;;;;;;;;;;;;22.51;44.87;101077.66;5074051;28;19938;-78
2022/05/16 03:10:23;;;;;;;;;;;;;;;22.51;45.16;101076.84;5073950;28;19942;-78
2022/05/16 03:12:49;;;;;;;;;;;;;;;22.50;44.81;101066.94;5074069;28;19924;-77
2022/05/16 03:15:15;;;;;;;;;;;;;;;22.50;45.21;101066.94;5072763;28;19956;-77
2022/05/16 03:17:41;;;;;;;;;;;;;;;22.50;45.09;101067.75;5074197;28;19916;-78
2022/05/16 03:20:07;;;;;;;;;;;;;;;22.49;45.13;101068.91;5073006;28;19930;-81
2022/05/16 03:22:32;;;;;;;;;;;;;;;22.49;44.82;101073.59;5072777;28;19954;-77
2022/05/16 03:24:57;;;;;;;;;;;;;;;22.49;44.84;101073.59;5072965;28;20015;-78
2022/05/16 03:27:23;;;;;;;;;;;;;;;22.47;44.83;101063.69;5073938;28;19916;-77
2022/05/16 03:29:49;;;;;;;;;;;;;;;22.48;45.09;101061.78;5056097;28;20377;-77
2022/05/16 03:32:14;;;;;;;;;;;;;;;22.47;44.81;101066.44;5073839;28;19924;-78
2022/05/16 03:34:39;;;;;;;;;;;;;;;22.47;44.77;101071.94;5073239;28;19939;-77
2022/05/16 03:37:05;;;;;;;;;;;;;;;22.47;44.95;101060.94;5072869;28;20080;-77
2022/05/16 03:42:14;;;;;;;;;;;;;;;22.47;44.79;101065.63;5074180;28;19960;-77
2022/05/16 03:44:39;;;;;;;;;;;;;;;22.45;45.14;101063.22;5076476;28;19929;-78
2022/05/16 03:47:05;;;;;;;;;;;;;;;22.46;44.79;101066.78;5077728;28;19957;-78
2022/05/16 03:49:30;;;;;;;;;;;;;;;22.45;44.74;101060.47;5077630;28;19935;-78
2022/05/16 03:51:56;;;;;;;;;;;;;;;22.46;44.85;101061.28;5077903;28;19923;-79
2022/05/16 03:54:21;;;;;;;;;;;;;;;22.45;44.79;101060.47;5076205;28;19912;-77
2022/05/16 03:56:46;;;;;;;;;;;;;;;22.46;45.00;101064.03;5077106;28;19916;-77
2022/05/16 03:59:11;;;;;;;;;;;;;;;22.45;44.88;101063.22;5077228;28;19945;-78
2022/05/16 04:01:37;;;;;;;;;;;;;;;22.45;44.76;101059.63;5077300;28;19932;-77
2022/05/16 04:04:02;;;;;;;;;;;;;;;22.44;44.81;101061.56;5077437;28;20423;-77
2022/05/16 04:06:28;;;;;;;;;;;;;;;22.44;44.96;101063.53;5077547;28;19934;-77
2022/05/16 04:08:54;;;;;;;;;;;;;;;22.44;45.16;101069.03;5077834;28;19923;-77
2022/05/16 04:11:19;;;;;;;;;;;;;;;22.44;45.23;101069.03;5077700;28;19912;-77
2022/05/16 04:13:46;;;;;;;;;;;;;;;22.43;44.98;101068.22;5076998;28;20017;-78
2022/05/16 04:16:11;;;;;;;;;;;;;;;22.44;45.02;101077.28;5077123;28;19945;-82
2022/05/16 04:18:36;;;;;;;;;;;;;;;22.43;45.01;101075.66;5077307;28;19923;-78
2022/05/16 04:21:02;;;;;;;;;;;;;;;22.43;45.09;101078.44;5075803;28;19917;-78
2022/05/16 04:23:27;;;;;;;;;;;;;;;22.43;45.20;101081.97;5058990;28;19950;-77
2022/05/16 04:25:53;;;;;;;;;;;;;;;22.43;45.08;101079.22;5075786;28;20336;-77
2022/05/16 04:28:18;;;;;;;;;;;;;;;22.43;44.82;101075.66;5077097;28;20297;-78
2022/05/16 04:30:43;;;;;;;;;;;;;;;22.43;44.89;101075.66;5075671;28;20317;-78
2022/05/16 04:33:09;;;;;;;;;;;;;;;22.43;44.86;101070.16;5077690;28;20362;-77
2022/05/16 04:35:36;;;;;;;;;;;;;;;22.43;44.83;101070.97;5076631;28;20311;-77
2022/05/16 04:38:01;;;;;;;;;;;;;;;22.43;44.85;101065.47;5075754;28;19944;-77
2022/05/16 04:40:26;;;;;;;;;;;;;;;22.43;45.05;101067.41;5076718;28;20256;-77
2022/05/16 04:42:51;;;;;;;;;;;;;;;22.43;45.18;101068.22;5075528;28;20314;-77
2022/05/16 04:45:21;;;;;;;;;;;;;;;22.43;44.86;101059.16;5076506;28;20002;-78
2022/05/16 04:47:48;;;;;;;;;;;;;;;22.43;45.14;101067.41;5076505;28;19969;-77
2022/05/16 04:50:14;;;;;;;;;;;;;;;22.43;44.91;101062.72;5075108;28;19912;-80
2022/05/16 04:52:40;;;;;;;;;;;;;;;22.43;44.88;101072.91;5076255;28;19920;-77
2022/05/16 04:55:06;;;;;;;;;;;;;;;22.42;44.84;101063.81;5075219;28;20289;-77
2022/05/16 04:57:31;;;;;;;;;;;;;;;22.43;45.11;101081.97;5077376;28;19953;-77
2022/05/16 04:59:56;;;;;;;;;;;;;;;22.43;45.32;101086.69;5075451;28;19988;-78
2022/05/16 05:02:21;;;;;;;;;;;;;;;22.43;45.21;101093.00;5076463;28;19919;-77
2022/05/16 05:04:47;;;;;;;;;;;;;;;22.43;44.80;101086.69;5075516;28;19920;-78
2022/05/16 05:07:12;;;;;;;;;;;;;;;22.43;44.85;101098.50;5076703;28;19921;-78
2022/05/16 05:15:11;;;;;;;;;;;;;;;22.44;44.99;101086.34;5076403;28;20272;-78
2022/05/16 05:17:36;;;;;;;;;;;;;;;22.45;45.08;101081.66;5076433;28;19924;-78
2022/05/16 05:20:02;;;;;;;;;;;;;;;22.44;44.94;101071.78;5074755;28;19923;-76
2022/05/16 05:22:28;;;;;;;;;;;;;;;22.44;44.88;101086.34;5076015;28;19916;-81
2022/05/16 05:24:53;;;;;;;;;;;;;;;22.46;44.87;101086.03;5074793;28;20416;-78
2022/05/16 05:27:19;;;;;;;;;;;;;;;22.44;45.25;101089.09;5074542;28;20014;-79
2022/05/16 05:29:44;;;;;;;;;;;;;;;22.45;45.20;101085.25;5075862;28;19969;-78
2022/05/16 05:32:09;;;;;;;;;;;;;;;22.45;45.06;101090.75;5074767;28;19933;-78
2022/05/16 05:34:37;;;;;;;;;;;;;;;22.46;45.08;101094.31;5074388;28;19987;-79
2022/05/16 05:37:03;;;;;;;;;;;;;;;22.46;44.92;101091.56;5074425;28;20003;-76
2022/05/16 05:39:31;;;;;;;;;;;;;;;22.46;45.43;101095.09;5074915;28;20426;-76
2022/05/16 05:41:56;;;;;;;;;;;;;;;22.47;45.54;101104.97;5075811;28;19950;-77
2022/05/16 05:44:22;;;;;;;;;;;;;;;22.49;45.30;101099.16;5075602;28;19912;-78
2022/05/16 05:46:47;;;;;;;;;;;;;;;22.49;45.41;101110.19;5073867;28;19928;-77
2022/05/16 05:49:13;;;;;;;;;;;;;;;22.51;45.22;101126.41;5075238;28;19936;-76
2022/05/16 05:51:39;;;;;;;;;;;;;;;22.51;45.35;101124.47;5075682;28;19955;-75
2022/05/16 05:54:04;;;;;;;;;;;;;;;22.51;45.72;101124.47;5075375;28;19977;-76
2022/05/16 05:56:30;;;;;;;;;;;;;;;22.53;45.44;101126.88;5074724;28;19936;-76
2022/05/16 05:58:55;;;;;;;;;;;;;;;22.52;45.57;101131.56;5075323;28;20367;-76
2022/05/16 06:01:21;;;;;;;;;;;;;;;22.53;45.82;101129.63;5075202;28;19970;-78
2022/05/16 06:03:46;;;;;;;;;;;;;;;22.53;45.61;101132.38;5075067;28;19950;-76
2022/05/16 06:06:11;;;;;;;;;;;;;;;22.53;45.85;101135.13;5073966;28;19970;-76
2022/05/16 06:08:37;;;;;;;;;;;;;;;22.53;45.54;101137.88;5074030;28;19930;-76
2022/05/16 06:11:02;;;;;;;;;;;;;;;22.54;45.83;101142.28;5073787;28;20290;-76
2022/05/16 06:13:29;;;;;;;;;;;;;;;22.54;45.95;101134.03;5074904;28;20354;-77
2022/05/16 06:15:54;;;;;;;;;;;;;;;22.53;45.59;101132.38;5074876;28;19917;-76
2022/05/16 06:18:19;;;;;;;;;;;;;;;22.54;45.59;101134.84;5074388;28;19931;-76
2022/05/16 06:20:44;;;;;;;;;;;;;;;22.55;46.08;101138.38;5057384;28;20381;-76
2022/05/16 06:23:10;;;;;;;;;;;;;;;22.55;46.19;101144.72;5073192;28;19916;-77
2022/05/16 06:25:39;;;;;;;;;;;;;;;22.55;45.76;101149.41;5073288;28;19930;-76
2022/05/16 06:28:16;;;;;;;;;;;;;;;22.55;45.87;101144.72;5074097;28;19916;-76
2022/05/16 06:30:43;;;;;;;;;;;;;;;22.56;46.02;101145.53;5074909;28;19912;-76
2022/05/16 06:33:09;;;;;;;;;;;;;;;22.56;46.26;101149.09;5073211;28;20444;-76
2022/05/16 06:35:35;;;;;;;;;;;;;;;22.56;46.06;101148.28;5073383;28;19944;-77
2022/05/16 06:38:19;;;;;;;;;;;;;;;22.56;46.42;101149.09;5074942;28;19966;-76
2022/05/16 06:40:48;;;;;;;;;;;;;;;22.56;46.22;101153.81;5074130;28;19916;-76
2022/05/16 06:43:14;;;;;;;;;;;;;;;22.57;46.59;101152.66;5074292;28;19919;-76
2022/05/16 06:45:40;;;;;;;;;;;;;;;22.57;46.66;101155.41;5074163;28;19957;-76
2022/05/16 06:48:07;;;;;;;;;;;;;;;22.57;46.63;101158.16;5073254;28;20439;-76
2022/05/16 06:50:34;;;;;;;;;;;;;;;22.57;46.63;101161.72;5072831;28;19916;-76
2022/05/16 06:52:59;;;;;;;;;;;;;;;22.58;46.72;101165.28;5074787;28;19965;-78
2022/05/16 06:55:25;;;;;;;;;;;;;;;22.58;46.40;101163.38;5072939;28;19913;-83
2022/05/16 06:57:50;;;;;;;;;;;;;;;22.59;46.33;101166.94;5074071;28;20358;-80
2022/05/16 07:00:16;;;;;;;;;;;;;;;22.59;46.51;101161.44;5072907;28;19927;-79
2022/05/16 07:02:42;;;;;;;;;;;;;;;22.59;46.17;101162.22;5073706;28;19917;-79
2022/05/16 07:05:08;;;;;;;;;;;;;;;22.59;46.23;101164.19;5073954;28;19929;-79
2022/05/16 07:07:33;;;;;;;;;;;;;;;22.59;46.37;101153.16;5073894;28;19913;-79
2022/05/16 07:09:59;;;;;;;;;;;;;;;22.59;46.11;101161.44;5073861;28;19999;-79
2022/05/16 07:12:24;;;;;;;;;;;;;;;22.59;45.92;101169.69;5074365;28;19941;-79
2022/05/16 07:14:50;;;;;;;;;;;;;;;22.60;45.95;101165.78;5074359;28;19912;-78
2022/05/16 07:17:15;;;;;;;;;;;;;;;22.58;45.95;101168.88;5072143;28;19939;-79
2022/05/16 07:19:40;;;;;;;;;;;;;;;22.58;46.27;101168.03;5073720;28;20020;-79
2022/05/16 07:22:16;;;;;;;;;;;;;;;22.59;45.87;101169.69;5073966;28;19946;-79
2022/05/16 07:24:43;;;;;;;;;;;;;;;22.58;46.22;101160.63;5072690;28;20308;-80
2022/05/16 07:29:52;;;;;;;;;;;;;;;22.59;45.76;101178.75;5074306;28;19919;-79
2022/05/16 07:32:17;;;;;;;;;;;;;;;22.59;45.93;101187.00;5072277;28;19934;-79
2022/05/16 07:34:42;;;;;;;;;;;;;;;22.58;46.03;101181.81;5072984;28;19917;-79
2022/05/16 07:37:08;;;;;;;;;;;;;;;22.59;45.94;101186.22;5072327;28;20008;-79
2022/05/16 07:39:35;;;;;;;;;;;;;;;22.59;45.69;101178.75;5072633;28;19927;-79
2022/05/16 07:42:00;;;;;;;;;;;;;;;22.58;46.05;101176.31;5072500;28;19952;-79
2022/05/16 07:44:26;;;;;;;;;;;;;;;22.59;46.08;101178.75;5074127;28;19924;-80
2022/05/16 07:46:51;;;;;;;;;;;;;;;22.59;46.01;101181.50;5055586;28;20302;-79
2022/05/16 07:49:17;;;;;;;;;;;;;;;22.59;46.00;101178.75;5074017;28;19917;-79
2022/05/16 07:51:43;;;;;;;;;;;;;;;22.59;45.77;101178.75;5072061;28;19976;-79
2022/05/16 07:54:08;;;;;;;;;;;;;;;22.60;45.74;101185.91;5072198;28;20390;-79
2022/05/16 07:56:34;;;;;;;;;;;;;;;22.60;45.68;101185.06;5073398;28;19967;-79
2022/05/16 07:58:59;;;;;;;;;;;;;;;22.61;45.69;101183.97;5072088;28;19913;-79
2022/05/16 08:01:25;;;;;;;;;;;;;;;22.61;45.81;101184.75;5072095;28;19963;-80
2022/05/16 08:03:50;;;;;;;;;;;;;;;22.61;46.20;101187.53;5073256;28;19965;-79
2022/05/16 08:06:15;;;;;;;;;;;;;;;22.62;45.97;101185.56;5073002;28;19972;-80
2022/05/16 08:11:24;;;;;;;;;;;;;;;22.63;46.02;101190.78;5072917;28;19992;-79
2022/05/16 08:13:50;;;;;;;;;;;;;;;22.64;46.37;101195.16;5073489;28;19931;-79
2022/05/16 08:16:15;;;;;;;;;;;;;;;22.64;46.49;101197.91;5055325;28;19948;-78
2022/05/16 08:18:41;;;;;;;;;;;;;;;22.64;46.40;101203.41;5073128;28;20022;-79
2022/05/16 08:21:07;;;;;;;;;;;;;;;22.65;46.14;101193.19;5072768;28;19913;-79
2022/05/16 08:23:33;;;;;;;;;;;;;;;22.65;46.20;101199.53;5073252;28;19946;-79
2022/05/16 08:26:01;;;;;;;;;;;;;;;22.66;46.26;101206.66;5073225;28;19930;-78
2022/05/16 08:28:26;;;;;;;;;;;;;;;22.66;46.30;101206.66;5072843;28;19923;-79
2022/05/16 08:30:52;;;;;;;;;;;;;;;22.67;46.44;101200.03;5076592;28;19923;-78
2022/05/16 08:33:18;;;;;;;;;;;;;;;22.67;46.59;101191.75;5076369;28;19938;-79
2022/05/16 08:35:43;;;;;;;;;;;;;;;22.68;46.71;101196.16;5076761;28;19920;-79
2022/05/16 08:40:57;;;;;;;;;;;;;;;22.69;46.33;101194.22;5076138;28;20247;-79
2022/05/16 08:43:42;;;;;;;;;;;;;;;22.71;46.74;101191.16;5076416;28;19944;-79
2022/05/16 08:46:22;;;;;;;;;;;;;;;22.70;46.72;101195.81;5076432;28;20360;-79
2022/05/16 08:48:51;;;;;;;;;;;;;;;22.71;46.42;101193.91;5076387;28;19947;-79
2022/05/16 08:51:24;;;;;;;;;;;;;;;22.73;46.77;101197.13;5075059;28;19913;-79
2022/05/16 08:53:52;;;;;;;;;;;;;;;22.72;46.44;101204.59;5076876;28;19962;-78
2022/05/16 08:56:22;;;;;;;;;;;;;;;22.73;46.88;101191.63;5076585;28;19959;-83
2022/05/16 08:58:55;;;;;;;;;;;;;;;22.73;46.77;101197.97;5076499;28;19994;-79
2022/05/16 09:01:22;;;;;;;;;;;;;;;22.74;46.82;101196.84;5076501;28;20318;-79
2022/05/16 09:03:50;;;;;;;;;;;;;;;22.74;46.50;101202.34;5075954;28;19917;-79
2022/05/16 09:06:19;;;;;;;;;;;;;;;22.75;46.88;101206.72;5075996;28;20021;-78
2022/05/16 09:08:46;;;;;;;;;;;;;;;22.75;46.56;101209.47;5074614;28;19937;-78
2022/05/16 09:11:19;;;;;;;;;;;;;;;22.76;46.72;101211.13;5075954;28;19961;-78
2022/05/16 09:13:47;;;;;;;;;;;;;;;22.74;46.48;101202.34;5076287;28;20331;-79
2022/05/16 09:16:15;;;;;;;;;;;;;;;22.76;46.59;101208.34;5075084;28;19945;-78
2022/05/16 09:18:44;;;;;;;;;;;;;;;22.76;46.39;101211.13;5074375;28;19974;-78
2022/05/16 09:21:28;;;;;;;;;;;;;;;22.77;46.63;101214.66;5075742;28;20360;-78
2022/05/16 09:24:05;;;;;;;;;;;;;;;22.77;46.67;101218.22;5074219;28;20394;-78
2022/05/16 09:26:47;;;;;;;;;;;;;;;22.78;46.48;101219.88;5074277;28;19949;-79
2022/05/16 09:29:12;;;;;;;;;;;;;;;22.79;46.57;101221.50;5075634;28;19916;-79
2022/05/16 09:31:40;;;;;;;;;;;;;;;22.80;46.78;101225.88;5075460;28;20386;-76
2022/05/16 09:34:07;;;;;;;;;;;;;;;22.80;46.45;101222.31;5075680;28;19939;-76
2022/05/16 09:36:32;;;;;;;;;;;;;;;22.81;46.76;101233.03;5075353;28;19932;-76
2022/05/16 09:38:57;;;;;;;;;;;;;;;22.80;46.79;101242.38;5075912;28;19938;-76
2022/05/16 09:41:35;;;;;;;;;;;;;;;22.82;46.46;101233.81;5074548;28;20382;-77
2022/05/16 09:44:39;;;;;;;;;;;;;;;22.82;46.72;101245.66;5075206;28;20043;-77
2022/05/16 09:47:23;;;;;;;;;;;;;;;22.84;46.76;101254.41;5033558;28;19968;-77
2022/05/16 09:50:07;;;;;;;;;;;;;;;22.84;46.37;101259.94;5032831;28;19924;-78
2022/05/16 09:52:34;;;;;;;;;;;;;;;22.84;46.88;101268.19;5062869;28;19931;-77
2022/05/16 09:55:01;;;;;;;;;;;;;;;22.84;46.71;101279.22;5075280;28;19938;-77
2022/05/16 09:57:26;;;;;;;;;;;;;;;22.85;46.62;101291.03;5074965;28;19926;-76
2022/05/16 09:59:58;;;;;;;;;;;;;;;22.86;46.75;101303.69;5074613;28;19953;-76
2022/05/16 10:02:30;;;;;;;;;;;;;;;22.86;46.89;101309.22;5074799;28;19916;-76
2022/05/16 10:05:00;;;;;;;;;;;;;;;22.87;46.73;101335.63;5073706;28;19944;-76
2022/05/16 10:07:46;;;;;;;;;;;;;;;22.87;46.49;101338.38;5074865;28;19923;-78
2022/05/16 10:10:32;;;;;;;;;;;;;;;22.87;46.72;101341.94;5074996;28;19974;-76
2022/05/16 10:12:58;;;;;;;;;;;;;;;22.87;46.68;101336.44;5073568;28;20383;-77
2022/05/16 10:15:23;;;;;;;;;;;;;;;22.88;46.82;101349.09;5073476;28;19931;-77
2022/05/16 10:17:52;;;;;;;;;;;;;;;22.89;46.42;101349.91;5074569;28;20364;-84
2022/05/16 10:20:21;;;;;;;;;;;;;;;22.89;46.79;101352.66;5074667;28;19939;-79
2022/05/16 10:22:46;;;;;;;;;;;;;;;22.89;46.84;101352.66;5074504;28;19924;-79
2022/05/16 10:25:14;;;;;;;;;;;;;;;22.90;46.45;101355.06;5074333;28;19927;-79
2022/05/16 10:27:43;;;;;;;;;;;;;;;22.90;46.63;101363.34;5074533;28;19939;-80
2022/05/16 10:30:20;;;;;;;;;;;;;;;22.89;46.32;101364.47;5074729;28;19916;-77
2022/05/16 10:35:37;;;;;;;;;;;;;;;22.90;46.33;101376.31;5074195;28;19985;-77
2022/05/16 10:38:06;;;;;;;;;;;;;;;22.90;46.67;101379.88;5074242;28;20431;-77
2022/05/16 10:40:40;;;;;;;;;;;;;;;22.92;46.38;101378.75;5074435;28;19917;-77
2022/05/16 10:43:20;;;;;;;;;;;;;;;22.90;46.48;101385.38;5074224;28;19917;-76
2022/05/16 10:45:49;;;;;;;;;;;;;;;22.92;46.43;101382.31;5073846;28;20445;-77
2022/05/16 10:48:30;;;;;;;;;;;;;;;22.92;46.47;101378.75;5074317;28;19916;-76
2022/05/16 10:51:00;;;;;;;;;;;;;;;22.92;46.79;101389.78;5073801;28;20045;-77
2022/05/16 10:53:34;;;;;;;;;;;;;;;22.93;46.79;101385.88;5073181;28;19960;-76
2022/05/16 10:56:18;;;;;;;;;;;;;;;22.93;46.78;101395.00;5073864;28;19916;-77
2022/05/16 10:58:50;;;;;;;;;;;;;;;22.93;46.43;101394.16;5073904;28;20004;-77
2022/05/16 11:01:42;;;;;;;;;;;;;;;22.93;46.69;101397.75;5072780;28;19952;-77
2022/05/16 11:04:07;;;;;;;;;;;;;;;22.94;46.74;101398.56;5049600;28;20422;-76
2022/05/16 11:06:51;;;;;;;;;;;;;;;22.95;46.51;101405.69;5073006;28;19937;-77
2022/05/16 11:09:17;;;;;;;;;;;;;;;22.94;46.77;101404.88;5074552;28;19961;-77
2022/05/16 11:11:50;;;;;;;;;;;;;;;22.96;46.86;101404.56;5073920;28;20317;-77
2022/05/16 11:14:36;;;;;;;;;;;;;;;22.95;46.46;101405.69;5073960;28;19916;-77
2022/05/16 11:17:19;;;;;;;;;;;;;;;22.96;46.44;101412.84;5073477;28;19943;-77
2022/05/16 11:19:44;;;;;;;;;;;;;;;22.96;46.80;101404.56;5074429;28;19991;-78
2022/05/16 11:22:13;;;;;;;;;;;;;;;22.97;46.84;101411.69;5074064;28;20038;-77
2022/05/16 11:24:44;;;;;;;;;;;;;;;22.97;46.82;101414.47;5074167;28;19985;-77
2022/05/16 11:27:09;;;;;;;;;;;;;;;22.97;46.51;101418.06;5074630;28;19917;-77
2022/05/16 11:29:47;;;;;;;;;;;;;;;22.97;46.62;101426.31;5072476;28;19966;-76
2022/05/16 11:32:32;;;;;;;;;;;;;;;22.98;46.54;101430.72;5072766;28;20033;-77
2022/05/16 11:35:09;;;;;;;;;;;;;;;22.98;46.57;101424.38;5074310;28;19930;-79
2022/05/16 11:37:37;;;;;;;;;;;;;;;22.97;46.87;101431.81;5073436;28;19939;-79
2022/05/16 11:40:10;;;;;;;;;;;;;;;22.98;46.88;101427.13;5073017;28;20276;-79
2022/05/16 11:42:38;;;;;;;;;;;;;;;22.99;46.93;101439.78;5073677;28;19942;-79
2022/05/16 11:45:07;;;;;;;;;;;;;;;22.98;46.59;101441.75;5073043;28;19930;-78
2022/05/16 11:47:36;;;;;;;;;;;;;;;22.98;46.53;101444.50;5073522;28;19942;-79
2022/05/16 11:50:07;;;;;;;;;;;;;;;22.98;46.56;101465.69;5071748;28;20053;-78
2022/05/16 11:52:35;;;;;;;;;;;;;;;22.99;46.71;101470.91;5073474;28;19927;-77
2022/05/16 12:00:31;;;;;;;;;;;;;;;22.99;46.97;101464.59;5072173;28;20299;-77
2022/05/16 12:00:41;;;;;;;;;;;;;;;22.99;46.88;101462.66;5073949;28;19927;-77
2022/05/16 12:03:06;;;;;;;;;;;;;;;22.99;46.56;101470.91;5073880;28;19945;-77
2022/05/16 12:05:43;;;;;;;;;;;;;;;22.99;46.97;101470.91;5076446;28;19970;-76
2022/05/16 12:08:14;;;;;;;;;;;;;;;23.00;46.79;101468.97;5077569;28;19942;-76
2022/05/16 12:10:55;;;;;;;;;;;;;;;23.01;46.90;101476.13;5076466;28;20298;-76
2022/05/16 12:13:20;;;;;;;;;;;;;;;23.00;46.56;101477.22;5077015;28;20264;-77
2022/05/16 12:15:49;;;;;;;;;;;;;;;23.00;46.97;101480.00;5075606;28;20432;-77
2022/05/16 12:18:34;;;;;;;;;;;;;;;23.00;46.61;101480.78;5076906;28;19990;-77
2022/05/16 12:21:03;;;;;;;;;;;;;;;23.00;46.56;101480.00;5076743;28;19943;-77
2022/05/16 12:23:49;;;;;;;;;;;;;;;23.01;46.60;101487.16;5075437;28;20004;-78
2022/05/16 12:26:37;;;;;;;;;;;;;;;23.00;46.91;101491.81;5076420;28;19952;-78
2022/05/16 12:29:21;;;;;;;;;;;;;;;23.00;46.97;101497.31;5057005;28;19989;-77
2022/05/16 12:31:49;;;;;;;;;;;;;;;23.01;46.96;101493.47;5076181;28;19916;-78
2022/05/16 12:34:29;;;;;;;;;;;;;;;23.01;47.05;101501.72;5076626;28;19916;-77
2022/05/16 12:36:58;;;;;;;;;;;;;;;23.02;46.77;101508.06;5076661;28;19943;-79
2022/05/16 12:39:29;;;;;;;;;;;;;;;23.02;46.66;101499.78;5075195;28;19942;-78
2022/05/16 12:42:23;;;;;;;;;;;;;;;23.03;46.96;101515.19;5075024;28;20011;-79
2022/05/16 12:44:56;;;;;;;;;;;;;;;23.02;46.76;101505.31;5062045;28;19943;-78
2022/05/16 12:47:21;;;;;;;;;;;;;;;23.02;47.05;101517.13;5076811;28;19955;-78
2022/05/16 12:50:01;;;;;;;;;;;;;;;23.02;46.72;101517.13;5076922;28;19974;-78
2022/05/16 12:52:41;;;;;;;;;;;;;;;23.03;47.05;101523.44;5075545;28;19942;-78
2022/05/16 12:55:09;;;;;;;;;;;;;;;23.02;46.91;101514.38;5075909;28;20322;-78
2022/05/16 12:57:34;;;;;;;;;;;;;;;23.02;46.70;101511.63;5075019;28;19923;-79
2022/05/16 13:00:18;;;;;;;;;;;;;;;23.02;47.02;101517.13;5077063;28;19938;-78
2022/05/16 13:02:43;;;;;;;;;;;;;;;23.03;46.70;101506.91;5075010;28;19954;-78
2022/05/16 13:05:22;;;;;;;;;;;;;;;23.03;46.64;101512.44;5076185;28;19942;-78
2022/05/16 13:08:13;;;;;;;;;;;;;;;23.03;46.76;101518.78;5076104;28;19927;-78
2022/05/16 13:10:47;;;;;;;;;;;;;;;23.03;46.70;101520.69;5076065;28;20021;-78
2022/05/16 13:13:25;;;;;;;;;;;;;;;23.03;47.09;101518.78;5075945;28;19926;-78